Terminal Aerodrome Forecast
Issued by NWS Jacksonville, FL

Home | Current Version | Previous Version | Text Only | Print | Product List | Glossary On
Versions: 1 2 3 4 5 6 7 8 9 10 11 12 13 14 15 16 17 18 19 20 21 22 23 24 25 26
000
FTUS42 KJAX 032320
TAFJAX
TAF
KJAX 032320Z 0400/0424 14009KT P6SM FEW045 BKN060 OVC250
     FM040600 17004KT P6SM SCT010 BKN045
     FM040800 17004KT 3SM BR SCT004 BKN008
      TEMPO 0409/0413 1 1/2SM BR BKN004
     FM041400 20010KT P6SM BKN025
     FM041600 20012G16KT P6SM BKN250=

USA.gov is the U.S. government's official web portal to all federal, state and local government web resources and services.